sensor_id;sensor_type;location;lat;lon;timestamp;P1;durP1;ratioP1;P2;durP2;ratioP2
74577;SDS011;63173;49.086;33.418;2023-06-24T00:01:44;13.02;;;5.88;;
74577;SDS011;63173;49.086;33.418;2023-06-24T00:04:10;8.93;;;5.47;;
74577;SDS011;63173;49.086;33.418;2023-06-24T00:06:35;12.57;;;5.93;;
74577;SDS011;63173;49.086;33.418;2023-06-24T00:09:02;14.68;;;5.03;;
74577;SDS011;63173;49.086;33.418;2023-06-24T00:11:30;11.82;;;5.70;;
74577;SDS011;63173;49.086;33.418;2023-06-24T00:13:56;11.35;;;6.00;;
74577;SDS011;63173;49.086;33.418;2023-06-24T00:16:22;7.15;;;5.18;;
74577;SDS011;63173;49.086;33.418;2023-06-24T00:18:51;10.88;;;6.53;;
74577;SDS011;63173;49.086;33.418;2023-06-24T00:21:17;10.40;;;5.65;;
74577;SDS011;63173;49.086;33.418;2023-06-24T00:23:44;9.70;;;5.80;;
74577;SDS011;63173;49.086;33.418;2023-06-24T00:26:10;8.65;;;5.53;;
74577;SDS011;63173;49.086;33.418;2023-06-24T00:28:35;12.48;;;5.97;;
74577;SDS011;63173;49.086;33.418;2023-06-24T00:31:01;13.63;;;5.65;;
74577;SDS011;63173;49.086;33.418;2023-06-24T00:33:28;14.95;;;5.93;;
74577;SDS011;63173;49.086;33.418;2023-06-24T00:35:53;10.10;;;5.68;;
74577;SDS011;63173;49.086;33.418;2023-06-24T00:38:19;12.82;;;5.57;;
74577;SDS011;63173;49.086;33.418;2023-06-24T00:40:45;11.73;;;6.00;;
74577;SDS011;63173;49.086;33.418;2023-06-24T00:43:11;10.07;;;5.88;;
74577;SDS011;63173;49.086;33.418;2023-06-24T00:45:37;11.02;;;5.55;;
74577;SDS011;63173;49.086;33.418;2023-06-24T00:48:03;8.63;;;5.68;;
74577;SDS011;63173;49.086;33.418;2023-06-24T00:50:28;18.27;;;5.90;;
74577;SDS011;63173;49.086;33.418;2023-06-24T00:52:54;12.80;;;5.72;;
74577;SDS011;63173;49.086;33.418;2023-06-24T00:55:20;13.93;;;5.72;;
74577;SDS011;63173;49.086;33.418;2023-06-24T00:57:46;10.25;;;6.15;;
74577;SDS011;63173;49.086;33.418;2023-06-24T01:00:19;10.57;;;5.30;;
74577;SDS011;63173;49.086;33.418;2023-06-24T01:02:47;13.50;;;5.47;;
74577;SDS011;63173;49.086;33.418;2023-06-24T01:05:14;9.50;;;5.57;;
74577;SDS011;63173;49.086;33.418;2023-06-24T01:07:40;16.95;;;5.95;;
74577;SDS011;63173;49.086;33.418;2023-06-24T01:10:07;7.80;;;5.72;;
74577;SDS011;63173;49.086;33.418;2023-06-24T01:12:34;10.27;;;5.50;;
74577;SDS011;63173;49.086;33.418;2023-06-24T01:15:01;12.73;;;6.07;;
74577;SDS011;63173;49.086;33.418;2023-06-24T01:17:31;8.93;;;6.38;;
74577;SDS011;63173;49.086;33.418;2023-06-24T01:20:11;10.05;;;6.28;;
74577;SDS011;63173;49.086;33.418;2023-06-24T01:22:59;10.20;;;5.85;;
74577;SDS011;63173;49.086;33.418;2023-06-24T01:28:28;11.27;;;6.00;;
74577;SDS011;63173;49.086;33.418;2023-06-24T01:36:40;12.57;;;6.50;;
74577;SDS011;63173;49.086;33.418;2023-06-24T01:39:10;11.10;;;6.13;;
74577;SDS011;63173;49.086;33.418;2023-06-24T01:41:42;11.48;;;6.30;;
74577;SDS011;63173;49.086;33.418;2023-06-24T01:44:13;12.70;;;6.47;;
74577;SDS011;63173;49.086;33.418;2023-06-24T01:46:40;12.48;;;6.25;;
74577;SDS011;63173;49.086;33.418;2023-06-24T01:49:07;12.82;;;5.97;;
74577;SDS011;63173;49.086;33.418;2023-06-24T01:51:38;11.60;;;6.57;;
74577;SDS011;63173;49.086;33.418;2023-06-24T01:54:07;14.52;;;6.53;;
74577;SDS011;63173;49.086;33.418;2023-06-24T01:56:37;15.32;;;6.55;;
74577;SDS011;63173;49.086;33.418;2023-06-24T01:59:04;14.60;;;6.57;;
74577;SDS011;63173;49.086;33.418;2023-06-24T02:01:33;10.82;;;6.65;;
74577;SDS011;63173;49.086;33.418;2023-06-24T02:04:02;11.40;;;6.07;;
74577;SDS011;63173;49.086;33.418;2023-06-24T02:06:29;10.30;;;6.10;;
74577;SDS011;63173;49.086;33.418;2023-06-24T02:08:56;16.25;;;6.00;;
74577;SDS011;63173;49.086;33.418;2023-06-24T02:11:23;13.18;;;5.88;;
74577;SDS011;63173;49.086;33.418;2023-06-24T02:13:51;14.40;;;6.05;;
74577;SDS011;63173;49.086;33.418;2023-06-24T02:16:20;8.32;;;6.22;;
74577;SDS011;63173;49.086;33.418;2023-06-24T02:18:47;11.45;;;6.47;;
74577;SDS011;63173;49.086;33.418;2023-06-24T02:21:14;9.40;;;6.22;;
74577;SDS011;63173;49.086;33.418;2023-06-24T02:23:43;12.18;;;6.05;;
74577;SDS011;63173;49.086;33.418;2023-06-24T02:26:09;15.40;;;6.47;;
74577;SDS011;63173;49.086;33.418;2023-06-24T02:28:36;11.90;;;6.07;;
74577;SDS011;63173;49.086;33.418;2023-06-24T02:31:02;12.05;;;6.20;;
74577;SDS011;63173;49.086;33.418;2023-06-24T02:33:29;12.82;;;6.47;;
74577;SDS011;63173;49.086;33.418;2023-06-24T02:35:54;11.98;;;6.30;;
74577;SDS011;63173;49.086;33.418;2023-06-24T02:38:20;10.15;;;6.40;;
74577;SDS011;63173;49.086;33.418;2023-06-24T02:40:46;12.57;;;6.70;;
74577;SDS011;63173;49.086;33.418;2023-06-24T02:43:11;10.23;;;6.18;;
74577;SDS011;63173;49.086;33.418;2023-06-24T02:45:37;12.90;;;6.22;;
74577;SDS011;63173;49.086;33.418;2023-06-24T02:48:04;12.35;;;6.47;;
74577;SDS011;63173;49.086;33.418;2023-06-24T02:50:31;13.15;;;6.88;;
74577;SDS011;63173;49.086;33.418;2023-06-24T02:52:58;10.93;;;5.88;;
74577;SDS011;63173;49.086;33.418;2023-06-24T02:55:24;12.23;;;6.40;;
74577;SDS011;63173;49.086;33.418;2023-06-24T02:57:51;13.38;;;6.07;;
74577;SDS011;63173;49.086;33.418;2023-06-24T03:00:18;13.88;;;6.65;;
74577;SDS011;63173;49.086;33.418;2023-06-24T03:02:44;13.35;;;6.72;;
74577;SDS011;63173;49.086;33.418;2023-06-24T03:05:11;8.32;;;6.35;;
74577;SDS011;63173;49.086;33.418;2023-06-24T03:07:37;13.93;;;6.35;;
74577;SDS011;63173;49.086;33.418;2023-06-24T03:10:03;11.10;;;6.13;;
74577;SDS011;63173;49.086;33.418;2023-06-24T03:12:33;12.65;;;6.40;;
74577;SDS011;63173;49.086;33.418;2023-06-24T03:14:58;10.93;;;6.57;;
74577;SDS011;63173;49.086;33.418;2023-06-24T03:17:24;9.05;;;6.63;;
74577;SDS011;63173;49.086;33.418;2023-06-24T03:19:50;11.50;;;6.35;;
74577;SDS011;63173;49.086;33.418;2023-06-24T03:22:15;11.65;;;6.60;;
74577;SDS011;63173;49.086;33.418;2023-06-24T03:24:42;11.43;;;6.78;;
74577;SDS011;63173;49.086;33.418;2023-06-24T03:27:08;10.63;;;6.45;;
74577;SDS011;63173;49.086;33.418;2023-06-24T03:29:33;10.57;;;5.93;;
74577;SDS011;63173;49.086;33.418;2023-06-24T03:31:58;13.15;;;6.72;;
74577;SDS011;63173;49.086;33.418;2023-06-24T03:34:24;10.18;;;6.60;;
74577;SDS011;63173;49.086;33.418;2023-06-24T03:36:52;11.38;;;6.55;;
74577;SDS011;63173;49.086;33.418;2023-06-24T03:39:20;16.20;;;6.20;;
74577;SDS011;63173;49.086;33.418;2023-06-24T03:41:46;11.07;;;6.40;;
74577;SDS011;63173;49.086;33.418;2023-06-24T03:44:12;8.23;;;6.45;;
74577;SDS011;63173;49.086;33.418;2023-06-24T03:46:37;11.20;;;6.57;;
74577;SDS011;63173;49.086;33.418;2023-06-24T03:49:03;11.70;;;6.00;;
74577;SDS011;63173;49.086;33.418;2023-06-24T03:51:28;11.18;;;6.50;;
74577;SDS011;63173;49.086;33.418;2023-06-24T03:53:54;10.00;;;6.25;;
74577;SDS011;63173;49.086;33.418;2023-06-24T03:56:20;13.05;;;6.63;;
74577;SDS011;63173;49.086;33.418;2023-06-24T03:58:45;12.07;;;6.65;;
74577;SDS011;63173;49.086;33.418;2023-06-24T04:01:11;12.57;;;6.50;;
74577;SDS011;63173;49.086;33.418;2023-06-24T04:03:36;10.60;;;6.82;;
74577;SDS011;63173;49.086;33.418;2023-06-24T04:06:02;9.63;;;6.10;;
74577;SDS011;63173;49.086;33.418;2023-06-24T04:08:27;10.85;;;6.18;;
74577;SDS011;63173;49.086;33.418;2023-06-24T04:10:59;14.02;;;6.60;;
74577;SDS011;63173;49.086;33.418;2023-06-24T04:13:28;10.57;;;6.40;;
74577;SDS011;63173;49.086;33.418;2023-06-24T04:15:54;12.93;;;5.95;;
74577;SDS011;63173;49.086;33.418;2023-06-24T04:18:20;8.70;;;6.32;;
74577;SDS011;63173;49.086;33.418;2023-06-24T04:20:45;10.82;;;6.25;;
74577;SDS011;63173;49.086;33.418;2023-06-24T04:23:11;10.60;;;6.13;;
74577;SDS011;63173;49.086;33.418;2023-06-24T04:25:39;13.38;;;6.75;;
74577;SDS011;63173;49.086;33.418;2023-06-24T04:28:05;9.38;;;6.53;;
74577;SDS011;63173;49.086;33.418;2023-06-24T04:30:31;16.02;;;6.90;;
74577;SDS011;63173;49.086;33.418;2023-06-24T04:32:57;13.52;;;7.20;;
74577;SDS011;63173;49.086;33.418;2023-06-24T04:35:22;11.40;;;6.70;;
74577;SDS011;63173;49.086;33.418;2023-06-24T04:37:48;14.63;;;6.90;;
74577;SDS011;63173;49.086;33.418;2023-06-24T04:40:17;11.25;;;6.10;;
74577;SDS011;63173;49.086;33.418;2023-06-24T04:42:42;11.32;;;6.40;;
74577;SDS011;63173;49.086;33.418;2023-06-24T04:45:08;12.95;;;6.53;;
74577;SDS011;63173;49.086;33.418;2023-06-24T04:47:34;12.40;;;6.60;;
74577;SDS011;63173;49.086;33.418;2023-06-24T04:49:59;11.27;;;6.85;;
74577;SDS011;63173;49.086;33.418;2023-06-24T04:52:25;9.73;;;6.60;;
74577;SDS011;63173;49.086;33.418;2023-06-24T04:54:50;13.10;;;6.65;;
74577;SDS011;63173;49.086;33.418;2023-06-24T04:57:33;13.10;;;6.68;;
74577;SDS011;63173;49.086;33.418;2023-06-24T05:00:02;11.73;;;7.43;;
74577;SDS011;63173;49.086;33.418;2023-06-24T05:02:28;14.80;;;7.13;;
74577;SDS011;63173;49.086;33.418;2023-06-24T05:04:53;11.02;;;7.18;;
74577;SDS011;63173;49.086;33.418;2023-06-24T05:07:19;12.52;;;7.15;;
74577;SDS011;63173;49.086;33.418;2023-06-24T05:09:47;11.95;;;7.10;;
74577;SDS011;63173;49.086;33.418;2023-06-24T05:12:14;13.10;;;6.45;;
74577;SDS011;63173;49.086;33.418;2023-06-24T05:14:39;12.32;;;7.00;;
74577;SDS011;63173;49.086;33.418;2023-06-24T05:17:05;10.10;;;6.95;;
74577;SDS011;63173;49.086;33.418;2023-06-24T05:19:31;12.23;;;7.03;;
74577;SDS011;63173;49.086;33.418;2023-06-24T05:21:56;11.45;;;6.85;;
74577;SDS011;63173;49.086;33.418;2023-06-24T05:24:22;12.90;;;6.68;;
74577;SDS011;63173;49.086;33.418;2023-06-24T05:26:48;10.25;;;7.20;;
74577;SDS011;63173;49.086;33.418;2023-06-24T05:29:14;11.40;;;7.13;;
74577;SDS011;63173;49.086;33.418;2023-06-24T05:31:40;14.40;;;7.32;;
74577;SDS011;63173;49.086;33.418;2023-06-24T05:34:06;13.02;;;7.38;;
74577;SDS011;63173;49.086;33.418;2023-06-24T05:36:31;10.88;;;7.03;;
74577;SDS011;63173;49.086;33.418;2023-06-24T05:38:57;12.13;;;7.22;;
74577;SDS011;63173;49.086;33.418;2023-06-24T05:41:22;12.50;;;7.10;;
74577;SDS011;63173;49.086;33.418;2023-06-24T05:43:47;13.48;;;6.97;;
74577;SDS011;63173;49.086;33.418;2023-06-24T05:46:13;16.00;;;7.78;;
74577;SDS011;63173;49.086;33.418;2023-06-24T05:48:39;14.20;;;6.95;;
74577;SDS011;63173;49.086;33.418;2023-06-24T05:51:04;11.95;;;7.43;;
74577;SDS011;63173;49.086;33.418;2023-06-24T05:53:29;11.13;;;7.57;;
74577;SDS011;63173;49.086;33.418;2023-06-24T05:55:55;11.32;;;7.53;;
74577;SDS011;63173;49.086;33.418;2023-06-24T05:58:20;14.73;;;7.68;;
74577;SDS011;63173;49.086;33.418;2023-06-24T06:00:46;15.02;;;8.30;;
74577;SDS011;63173;49.086;33.418;2023-06-24T06:03:11;15.15;;;8.20;;
74577;SDS011;63173;49.086;33.418;2023-06-24T06:05:36;12.88;;;7.18;;
74577;SDS011;63173;49.086;33.418;2023-06-24T06:08:02;11.55;;;7.50;;
74577;SDS011;63173;49.086;33.418;2023-06-24T06:10:28;11.18;;;7.68;;
74577;SDS011;63173;49.086;33.418;2023-06-24T06:12:53;11.82;;;7.50;;
74577;SDS011;63173;49.086;33.418;2023-06-24T06:15:19;18.60;;;8.52;;
74577;SDS011;63173;49.086;33.418;2023-06-24T06:17:45;13.02;;;7.78;;
74577;SDS011;63173;49.086;33.418;2023-06-24T06:20:11;12.95;;;7.63;;
74577;SDS011;63173;49.086;33.418;2023-06-24T06:22:36;14.82;;;7.97;;
74577;SDS011;63173;49.086;33.418;2023-06-24T06:25:04;13.43;;;7.20;;
74577;SDS011;63173;49.086;33.418;2023-06-24T06:27:32;13.30;;;8.13;;
74577;SDS011;63173;49.086;33.418;2023-06-24T06:29:58;13.35;;;7.82;;
74577;SDS011;63173;49.086;33.418;2023-06-24T06:32:24;10.02;;;7.55;;
74577;SDS011;63173;49.086;33.418;2023-06-24T06:34:49;13.13;;;7.93;;
74577;SDS011;63173;49.086;33.418;2023-06-24T06:37:14;12.63;;;7.55;;
74577;SDS011;63173;49.086;33.418;2023-06-24T06:39:40;16.02;;;8.35;;
74577;SDS011;63173;49.086;33.418;2023-06-24T06:42:05;12.18;;;8.05;;
74577;SDS011;63173;49.086;33.418;2023-06-24T06:44:31;12.40;;;8.07;;
74577;SDS011;63173;49.086;33.418;2023-06-24T06:46:56;12.95;;;8.45;;
74577;SDS011;63173;49.086;33.418;2023-06-24T06:49:22;12.93;;;8.02;;
74577;SDS011;63173;49.086;33.418;2023-06-24T06:51:47;12.07;;;8.48;;
74577;SDS011;63173;49.086;33.418;2023-06-24T06:54:13;12.10;;;8.05;;
74577;SDS011;63173;49.086;33.418;2023-06-24T06:56:38;12.63;;;8.85;;
74577;SDS011;63173;49.086;33.418;2023-06-24T06:59:05;12.52;;;8.40;;
74577;SDS011;63173;49.086;33.418;2023-06-24T07:01:30;14.15;;;8.15;;
74577;SDS011;63173;49.086;33.418;2023-06-24T07:03:55;12.68;;;8.07;;
74577;SDS011;63173;49.086;33.418;2023-06-24T07:06:21;9.57;;;7.82;;
74577;SDS011;63173;49.086;33.418;2023-06-24T07:08:46;14.45;;;8.70;;
74577;SDS011;63173;49.086;33.418;2023-06-24T07:11:12;13.15;;;8.50;;
74577;SDS011;63173;49.086;33.418;2023-06-24T07:13:37;11.15;;;7.97;;
74577;SDS011;63173;49.086;33.418;2023-06-24T07:16:03;14.48;;;8.93;;
74577;SDS011;63173;49.086;33.418;2023-06-24T07:18:28;14.68;;;8.32;;
74577;SDS011;63173;49.086;33.418;2023-06-24T07:20:55;14.18;;;8.40;;
74577;SDS011;63173;49.086;33.418;2023-06-24T07:23:21;12.10;;;7.93;;
74577;SDS011;63173;49.086;33.418;2023-06-24T07:25:46;17.23;;;8.50;;
74577;SDS011;63173;49.086;33.418;2023-06-24T07:28:12;16.92;;;8.30;;
74577;SDS011;63173;49.086;33.418;2023-06-24T07:30:37;12.40;;;7.93;;
74577;SDS011;63173;49.086;33.418;2023-06-24T07:33:03;15.27;;;8.77;;
74577;SDS011;63173;49.086;33.418;2023-06-24T07:35:30;19.08;;;8.35;;
74577;SDS011;63173;49.086;33.418;2023-06-24T07:37:57;15.00;;;7.78;;
74577;SDS011;63173;49.086;33.418;2023-06-24T07:40:23;13.73;;;8.30;;
74577;SDS011;63173;49.086;33.418;2023-06-24T07:42:48;10.63;;;7.30;;
74577;SDS011;63173;49.086;33.418;2023-06-24T07:45:15;14.10;;;7.70;;
74577;SDS011;63173;49.086;33.418;2023-06-24T07:47:40;14.52;;;8.20;;
74577;SDS011;63173;49.086;33.418;2023-06-24T07:50:06;12.77;;;8.07;;
74577;SDS011;63173;49.086;33.418;2023-06-24T07:52:32;11.57;;;7.60;;
74577;SDS011;63173;49.086;33.418;2023-06-24T07:54:57;16.95;;;7.93;;
74577;SDS011;63173;49.086;33.418;2023-06-24T07:57:22;15.13;;;8.02;;
74577;SDS011;63173;49.086;33.418;2023-06-24T07:59:48;14.15;;;7.97;;
74577;SDS011;63173;49.086;33.418;2023-06-24T08:02:13;18.80;;;8.77;;
74577;SDS011;63173;49.086;33.418;2023-06-24T08:04:39;14.45;;;9.00;;
74577;SDS011;63173;49.086;33.418;2023-06-24T08:07:04;19.38;;;7.88;;
74577;SDS011;63173;49.086;33.418;2023-06-24T08:09:30;10.68;;;7.93;;
74577;SDS011;63173;49.086;33.418;2023-06-24T08:11:56;15.18;;;7.70;;
74577;SDS011;63173;49.086;33.418;2023-06-24T08:14:21;13.43;;;8.35;;
74577;SDS011;63173;49.086;33.418;2023-06-24T08:16:46;11.77;;;7.13;;
74577;SDS011;63173;49.086;33.418;2023-06-24T08:19:12;11.40;;;7.68;;
74577;SDS011;63173;49.086;33.418;2023-06-24T08:21:37;17.02;;;8.25;;
74577;SDS011;63173;49.086;33.418;2023-06-24T08:24:03;10.38;;;7.30;;
74577;SDS011;63173;49.086;33.418;2023-06-24T08:26:30;11.10;;;7.40;;
74577;SDS011;63173;49.086;33.418;2023-06-24T08:28:55;12.52;;;7.68;;
74577;SDS011;63173;49.086;33.418;2023-06-24T08:31:22;11.13;;;7.68;;
74577;SDS011;63173;49.086;33.418;2023-06-24T08:33:51;10.73;;;7.38;;
74577;SDS011;63173;49.086;33.418;2023-06-24T08:36:19;14.48;;;7.72;;
74577;SDS011;63173;49.086;33.418;2023-06-24T08:38:44;15.10;;;7.93;;
74577;SDS011;63173;49.086;33.418;2023-06-24T08:41:09;19.30;;;7.93;;
74577;SDS011;63173;49.086;33.418;2023-06-24T08:43:35;11.45;;;7.68;;
74577;SDS011;63173;49.086;33.418;2023-06-24T08:46:00;13.80;;;7.72;;
74577;SDS011;63173;49.086;33.418;2023-06-24T08:48:26;10.95;;;7.43;;
74577;SDS011;63173;49.086;33.418;2023-06-24T08:50:55;13.40;;;7.45;;
74577;SDS011;63173;49.086;33.418;2023-06-24T08:53:23;12.70;;;7.57;;
74577;SDS011;63173;49.086;33.418;2023-06-24T08:55:51;12.95;;;7.03;;
74577;SDS011;63173;49.086;33.418;2023-06-24T09:00:44;11.93;;;7.00;;
74577;SDS011;63173;49.086;33.418;2023-06-24T09:03:10;10.38;;;6.60;;
74577;SDS011;63173;49.086;33.418;2023-06-24T09:05:35;13.20;;;7.28;;
74577;SDS011;63173;49.086;33.418;2023-06-24T09:08:00;11.50;;;7.55;;
74577;SDS011;63173;49.086;33.418;2023-06-24T09:10:32;11.32;;;7.15;;
74577;SDS011;63173;49.086;33.418;2023-06-24T09:13:05;14.63;;;6.68;;
74577;SDS011;63173;49.086;33.418;2023-06-24T09:15:32;14.00;;;7.70;;
74577;SDS011;63173;49.086;33.418;2023-06-24T09:17:58;13.02;;;7.30;;
74577;SDS011;63173;49.086;33.418;2023-06-24T09:20:27;11.10;;;6.90;;
74577;SDS011;63173;49.086;33.418;2023-06-24T09:22:59;10.25;;;6.32;;
74577;SDS011;63173;49.086;33.418;2023-06-24T09:25:26;11.63;;;6.38;;
74577;SDS011;63173;49.086;33.418;2023-06-24T09:27:52;9.23;;;6.05;;
74577;SDS011;63173;49.086;33.418;2023-06-24T09:30:23;9.32;;;6.53;;
74577;SDS011;63173;49.086;33.418;2023-06-24T09:32:50;8.05;;;6.20;;
74577;SDS011;63173;49.086;33.418;2023-06-24T09:35:27;9.57;;;6.13;;
74577;SDS011;63173;49.086;33.418;2023-06-24T09:37:53;9.02;;;6.22;;
74577;SDS011;63173;49.086;33.418;2023-06-24T09:40:20;10.45;;;6.10;;
74577;SDS011;63173;49.086;33.418;2023-06-24T09:45:27;13.27;;;6.60;;
74577;SDS011;63173;49.086;33.418;2023-06-24T09:47:54;9.23;;;6.53;;
74577;SDS011;63173;49.086;33.418;2023-06-24T09:50:20;11.23;;;6.60;;
74577;SDS011;63173;49.086;33.418;2023-06-24T09:52:46;10.90;;;7.03;;
74577;SDS011;63173;49.086;33.418;2023-06-24T09:55:14;7.38;;;5.38;;
74577;SDS011;63173;49.086;33.418;2023-06-24T09:57:41;8.63;;;5.88;;
74577;SDS011;63173;49.086;33.418;2023-06-24T10:00:10;8.30;;;6.22;;
74577;SDS011;63173;49.086;33.418;2023-06-24T10:02:40;9.57;;;6.57;;
74577;SDS011;63173;49.086;33.418;2023-06-24T10:05:06;8.10;;;5.95;;
74577;SDS011;63173;49.086;33.418;2023-06-24T10:07:32;9.68;;;6.30;;
74577;SDS011;63173;49.086;33.418;2023-06-24T10:10:00;9.43;;;6.18;;
74577;SDS011;63173;49.086;33.418;2023-06-24T10:12:28;9.48;;;6.78;;
74577;SDS011;63173;49.086;33.418;2023-06-24T10:14:53;8.95;;;6.32;;
74577;SDS011;63173;49.086;33.418;2023-06-24T10:17:19;7.03;;;5.90;;
74577;SDS011;63173;49.086;33.418;2023-06-24T10:19:44;11.40;;;5.90;;
74577;SDS011;63173;49.086;33.418;2023-06-24T10:22:10;8.30;;;6.05;;
74577;SDS011;63173;49.086;33.418;2023-06-24T10:24:37;9.98;;;6.30;;
74577;SDS011;63173;49.086;33.418;2023-06-24T10:27:14;8.80;;;5.88;;
74577;SDS011;63173;49.086;33.418;2023-06-24T10:32:10;7.97;;;5.72;;
74577;SDS011;63173;49.086;33.418;2023-06-24T10:44:47;9.25;;;5.03;;
74577;SDS011;63173;49.086;33.418;2023-06-24T10:47:13;7.22;;;4.90;;
74577;SDS011;63173;49.086;33.418;2023-06-24T10:49:38;7.78;;;5.03;;
74577;SDS011;63173;49.086;33.418;2023-06-24T10:52:04;9.68;;;4.93;;
74577;SDS011;63173;49.086;33.418;2023-06-24T10:54:33;8.75;;;5.10;;
74577;SDS011;63173;49.086;33.418;2023-06-24T10:56:58;8.27;;;5.07;;
74577;SDS011;63173;49.086;33.418;2023-06-24T10:59:24;10.10;;;4.72;;
74577;SDS011;63173;49.086;33.418;2023-06-24T11:01:52;8.90;;;5.45;;
74577;SDS011;63173;49.086;33.418;2023-06-24T11:04:18;7.68;;;5.13;;
74577;SDS011;63173;49.086;33.418;2023-06-24T11:06:56;9.52;;;5.05;;
74577;SDS011;63173;49.086;33.418;2023-06-24T11:09:23;9.85;;;5.03;;
74577;SDS011;63173;49.086;33.418;2023-06-24T11:11:48;6.65;;;4.90;;
74577;SDS011;63173;49.086;33.418;2023-06-24T11:14:15;7.32;;;4.90;;
74577;SDS011;63173;49.086;33.418;2023-06-24T11:16:41;8.43;;;5.07;;
74577;SDS011;63173;49.086;33.418;2023-06-24T11:19:06;6.28;;;4.75;;
74577;SDS011;63173;49.086;33.418;2023-06-24T11:21:32;7.00;;;5.00;;
74577;SDS011;63173;49.086;33.418;2023-06-24T11:24:01;8.40;;;4.78;;
74577;SDS011;63173;49.086;33.418;2023-06-24T11:26:27;9.32;;;4.93;;
74577;SDS011;63173;49.086;33.418;2023-06-24T11:28:53;8.07;;;5.07;;
74577;SDS011;63173;49.086;33.418;2023-06-24T11:31:18;8.77;;;4.85;;
74577;SDS011;63173;49.086;33.418;2023-06-24T11:33:50;8.27;;;5.15;;
74577;SDS011;63173;49.086;33.418;2023-06-24T11:36:17;9.73;;;4.95;;
74577;SDS011;63173;49.086;33.418;2023-06-24T11:38:45;9.05;;;5.30;;
74577;SDS011;63173;49.086;33.418;2023-06-24T11:41:11;7.32;;;4.72;;
74577;SDS011;63173;49.086;33.418;2023-06-24T11:43:36;8.30;;;5.07;;
74577;SDS011;63173;49.086;33.418;2023-06-24T11:46:02;7.93;;;4.25;;
74577;SDS011;63173;49.086;33.418;2023-06-24T11:48:28;11.23;;;4.90;;
74577;SDS011;63173;49.086;33.418;2023-06-24T11:50:54;8.65;;;4.20;;
74577;SDS011;63173;49.086;33.418;2023-06-24T11:53:40;7.80;;;4.55;;
74577;SDS011;63173;49.086;33.418;2023-06-24T11:56:10;10.82;;;4.40;;
74577;SDS011;63173;49.086;33.418;2023-06-24T11:58:36;9.07;;;4.78;;
74577;SDS011;63173;49.086;33.418;2023-06-24T12:01:01;7.93;;;4.25;;
74577;SDS011;63173;49.086;33.418;2023-06-24T12:03:28;12.18;;;4.57;;
74577;SDS011;63173;49.086;33.418;2023-06-24T12:05:54;14.48;;;4.55;;
74577;SDS011;63173;49.086;33.418;2023-06-24T12:08:20;9.23;;;4.35;;
74577;SDS011;63173;49.086;33.418;2023-06-24T12:10:47;11.45;;;3.80;;
74577;SDS011;63173;49.086;33.418;2023-06-24T12:13:13;12.10;;;3.80;;
74577;SDS011;63173;49.086;33.418;2023-06-24T12:15:39;8.27;;;4.40;;
74577;SDS011;63173;49.086;33.418;2023-06-24T12:18:05;6.68;;;3.95;;
74577;SDS011;63173;49.086;33.418;2023-06-24T12:20:31;9.68;;;3.95;;
74577;SDS011;63173;49.086;33.418;2023-06-24T12:22:57;8.90;;;3.45;;
74577;SDS011;63173;49.086;33.418;2023-06-24T12:25:23;12.63;;;4.55;;
74577;SDS011;63173;49.086;33.418;2023-06-24T12:27:49;10.40;;;4.57;;
74577;SDS011;63173;49.086;33.418;2023-06-24T12:30:15;10.70;;;4.72;;
74577;SDS011;63173;49.086;33.418;2023-06-24T12:32:41;16.10;;;5.13;;
74577;SDS011;63173;49.086;33.418;2023-06-24T12:35:07;11.57;;;4.72;;
74577;SDS011;63173;49.086;33.418;2023-06-24T12:37:34;12.32;;;5.07;;
74577;SDS011;63173;49.086;33.418;2023-06-24T12:40:00;21.13;;;5.45;;
74577;SDS011;63173;49.086;33.418;2023-06-24T12:42:26;14.63;;;5.18;;
74577;SDS011;63173;49.086;33.418;2023-06-24T12:44:52;10.50;;;4.60;;
74577;SDS011;63173;49.086;33.418;2023-06-24T12:47:18;9.27;;;4.70;;
74577;SDS011;63173;49.086;33.418;2023-06-24T12:49:44;11.38;;;4.25;;
74577;SDS011;63173;49.086;33.418;2023-06-24T12:52:10;7.53;;;3.97;;
74577;SDS011;63173;49.086;33.418;2023-06-24T12:54:35;10.70;;;3.90;;
74577;SDS011;63173;49.086;33.418;2023-06-24T12:57:01;16.13;;;4.38;;
74577;SDS011;63173;49.086;33.418;2023-06-24T12:59:27;10.25;;;3.78;;
74577;SDS011;63173;49.086;33.418;2023-06-24T13:01:52;16.35;;;4.40;;
74577;SDS011;63173;49.086;33.418;2023-06-24T13:04:18;14.50;;;3.45;;
74577;SDS011;63173;49.086;33.418;2023-06-24T13:06:45;10.15;;;3.78;;
74577;SDS011;63173;49.086;33.418;2023-06-24T13:09:11;13.00;;;3.80;;
74577;SDS011;63173;49.086;33.418;2023-06-24T13:11:37;11.55;;;4.13;;
74577;SDS011;63173;49.086;33.418;2023-06-24T13:14:02;9.52;;;3.65;;
74577;SDS011;63173;49.086;33.418;2023-06-24T13:16:28;9.65;;;3.38;;
74577;SDS011;63173;49.086;33.418;2023-06-24T13:18:53;8.75;;;3.30;;
74577;SDS011;63173;49.086;33.418;2023-06-24T13:21:19;13.55;;;4.38;;
74577;SDS011;63173;49.086;33.418;2023-06-24T13:23:44;9.38;;;3.30;;
74577;SDS011;63173;49.086;33.418;2023-06-24T13:26:11;10.73;;;4.10;;
74577;SDS011;63173;49.086;33.418;2023-06-24T13:28:37;10.65;;;3.83;;
74577;SDS011;63173;49.086;33.418;2023-06-24T13:31:02;7.03;;;3.72;;
74577;SDS011;63173;49.086;33.418;2023-06-24T13:33:28;10.73;;;3.70;;
74577;SDS011;63173;49.086;33.418;2023-06-24T13:35:54;9.85;;;3.67;;
74577;SDS011;63173;49.086;33.418;2023-06-24T13:38:21;9.27;;;3.42;;
74577;SDS011;63173;49.086;33.418;2023-06-24T13:40:46;13.50;;;3.97;;
74577;SDS011;63173;49.086;33.418;2023-06-24T13:43:12;12.68;;;3.90;;
74577;SDS011;63173;49.086;33.418;2023-06-24T13:45:37;8.93;;;3.58;;
74577;SDS011;63173;49.086;33.418;2023-06-24T13:48:03;12.70;;;3.60;;
74577;SDS011;63173;49.086;33.418;2023-06-24T13:50:28;12.00;;;3.35;;
74577;SDS011;63173;49.086;33.418;2023-06-24T13:52:57;12.60;;;4.03;;
74577;SDS011;63173;49.086;33.418;2023-06-24T13:55:22;12.70;;;3.92;;
74577;SDS011;63173;49.086;33.418;2023-06-24T13:57:47;12.30;;;4.25;;
74577;SDS011;63173;49.086;33.418;2023-06-24T14:00:13;9.70;;;4.32;;
74577;SDS011;63173;49.086;33.418;2023-06-24T14:02:39;8.57;;;4.05;;
74577;SDS011;63173;49.086;33.418;2023-06-24T14:05:06;11.88;;;4.28;;
74577;SDS011;63173;49.086;33.418;2023-06-24T14:07:32;10.35;;;4.50;;
74577;SDS011;63173;49.086;33.418;2023-06-24T14:09:57;11.88;;;4.97;;
74577;SDS011;63173;49.086;33.418;2023-06-24T14:12:22;9.77;;;3.78;;
74577;SDS011;63173;49.086;33.418;2023-06-24T14:14:48;13.85;;;4.07;;
74577;SDS011;63173;49.086;33.418;2023-06-24T14:17:14;11.20;;;4.00;;
74577;SDS011;63173;49.086;33.418;2023-06-24T14:19:39;11.30;;;3.70;;
74577;SDS011;63173;49.086;33.418;2023-06-24T14:22:05;8.65;;;3.75;;
74577;SDS011;63173;49.086;33.418;2023-06-24T14:24:32;7.95;;;3.78;;
74577;SDS011;63173;49.086;33.418;2023-06-24T14:26:57;7.00;;;3.83;;
74577;SDS011;63173;49.086;33.418;2023-06-24T14:29:23;9.07;;;3.53;;
74577;SDS011;63173;49.086;33.418;2023-06-24T14:31:49;10.02;;;3.78;;
74577;SDS011;63173;49.086;33.418;2023-06-24T14:34:15;10.80;;;3.83;;
74577;SDS011;63173;49.086;33.418;2023-06-24T14:36:40;8.13;;;4.10;;
74577;SDS011;63173;49.086;33.418;2023-06-24T14:39:06;9.98;;;3.78;;
74577;SDS011;63173;49.086;33.418;2023-06-24T14:41:31;9.88;;;4.50;;
74577;SDS011;63173;49.086;33.418;2023-06-24T14:43:57;11.27;;;4.25;;
74577;SDS011;63173;49.086;33.418;2023-06-24T14:46:22;10.75;;;7.15;;
74577;SDS011;63173;49.086;33.418;2023-06-24T14:48:47;16.35;;;8.70;;